createdAt,value
2022-12-12T00:00:09.496Z,1.08
2022-12-12T00:05:08.487Z,0.10
2022-12-12T00:07:35.778Z,0.10
2022-12-12T00:10:02.796Z,0.63
2022-12-12T00:12:29.686Z,0.20
2022-12-12T00:14:56.618Z,0.10
2022-12-12T00:17:23.485Z,1.10
2022-12-12T00:19:50.326Z,0.93
2022-12-12T00:22:17.180Z,0.20
2022-12-12T00:24:44.147Z,0.75
2022-12-12T00:27:11.016Z,0.40
2022-12-12T00:29:37.956Z,0.85
2022-12-12T00:32:05.040Z,1.67
2022-12-12T00:34:32.014Z,2.17
2022-12-12T00:36:58.757Z,1.73
2022-12-12T00:39:25.667Z,0.52
2022-12-12T00:41:52.488Z,0.47
2022-12-12T00:44:19.450Z,1.38
2022-12-12T00:46:46.407Z,1.02
2022-12-12T00:49:13.361Z,0.75
2022-12-12T00:51:40.400Z,0.47
2022-12-12T00:54:07.316Z,0.60
2022-12-12T00:56:34.163Z,1.25
2022-12-12T00:59:03.795Z,0.95
2022-12-12T01:01:32.520Z,3.40
2022-12-12T01:03:59.947Z,2.85
2022-12-12T01:06:30.828Z,0.85
2022-12-12T01:08:58.084Z,1.20
2022-12-12T01:11:25.522Z,1.65
2022-12-12T01:13:54.162Z,2.47
2022-12-12T01:16:22.218Z,1.88
2022-12-12T01:18:49.725Z,1.17
2022-12-12T01:21:19.810Z,0.95
2022-12-12T01:23:46.971Z,1.73
2022-12-12T01:26:17.499Z,2.20
2022-12-12T01:28:45.440Z,1.70
2022-12-12T01:31:13.212Z,1.77
2022-12-12T01:33:45.932Z,1.08
2022-12-12T01:36:18.509Z,1.42
2022-12-12T01:38:47.471Z,1.35
2022-12-12T01:41:15.243Z,3.65
2022-12-12T01:43:42.846Z,3.03
2022-12-12T01:46:40.711Z,2.13
2022-12-12T01:49:39.879Z,2.33
2022-12-12T01:52:12.540Z,2.30
2022-12-12T01:54:44.172Z,6.70
2022-12-12T01:57:23.838Z,2.13
2022-12-12T01:59:50.689Z,3.30
2022-12-12T02:02:17.800Z,3.75
2022-12-12T02:04:44.826Z,1.42
2022-12-12T02:07:11.938Z,7.88
2022-12-12T02:09:39.094Z,0.80
2022-12-12T02:12:06.494Z,2.83
2022-12-12T02:14:41.251Z,1.15
2022-12-12T02:17:36.740Z,1.42
2022-12-12T02:20:39.444Z,1.73
2022-12-12T02:23:44.705Z,2.90
2022-12-12T02:26:42.660Z,1.63
2022-12-12T02:29:33.791Z,0.68
2022-12-12T02:32:21.107Z,1.27
2022-12-12T02:35:20.377Z,6.32
2022-12-12T02:38:19.542Z,4.28
2022-12-12T02:40:56.719Z,2.90
2022-12-12T02:43:31.468Z,1.63
2022-12-12T02:46:04.372Z,1.38
2022-12-12T02:48:36.895Z,2.90
2022-12-12T02:51:06.715Z,1.23
2022-12-12T02:53:33.953Z,2.53
2022-12-12T02:56:04.299Z,3.17
2022-12-12T02:58:34.546Z,3.92
2022-12-12T03:01:23.906Z,2.10
2022-12-12T03:04:34.882Z,1.50
2022-12-12T03:07:46.789Z,3.25
2022-12-12T03:10:41.353Z,1.30
2022-12-12T03:27:29.920Z,3.47
2022-12-12T03:30:07.369Z,3.75
2022-12-12T03:32:45.830Z,3.20
2022-12-12T03:35:19.861Z,1.90
2022-12-12T03:37:51.673Z,1.58
2022-12-12T03:40:30.213Z,3.40
2022-12-12T03:43:05.476Z,1.42
2022-12-12T03:45:42.387Z,2.55
2022-12-12T03:48:33.131Z,1.73
2022-12-12T03:51:11.811Z,4.97
2022-12-12T03:53:47.949Z,2.40
2022-12-12T03:56:17.532Z,2.00
2022-12-12T03:58:55.732Z,1.65
2022-12-12T04:01:27.845Z,1.27
2022-12-12T04:04:00.719Z,2.83
2022-12-12T04:06:39.641Z,0.80
2022-12-12T04:09:36.701Z,1.02
2022-12-12T04:12:48.589Z,2.72
2022-12-12T04:15:53.885Z,2.80
2022-12-12T04:18:58.304Z,1.55
2022-12-12T04:22:12.857Z,1.95
2022-12-12T04:24:51.023Z,2.08
2022-12-12T04:27:25.973Z,3.42
2022-12-12T04:30:00.495Z,4.63
2022-12-12T04:35:13.012Z,3.60
2022-12-12T04:37:46.545Z,4.45
2022-12-12T04:40:18.962Z,1.30
2022-12-12T04:42:53.224Z,3.72
2022-12-12T04:45:24.963Z,1.08
2022-12-12T04:47:53.542Z,1.38
2022-12-12T04:50:22.750Z,5.43
2022-12-12T04:52:53.165Z,5.57
2022-12-12T04:55:28.775Z,2.55
2022-12-12T04:57:56.546Z,0.88
2022-12-12T05:00:25.043Z,2.83
2022-12-12T05:03:15.007Z,14.10
2022-12-12T05:05:48.574Z,2.35
2022-12-12T05:08:24.995Z,3.73
2022-12-12T05:10:56.059Z,0.90
2022-12-12T05:13:27.513Z,1.75
2022-12-12T05:15:56.507Z,1.55
2022-12-12T05:18:23.315Z,1.67
2022-12-12T05:20:50.326Z,1.75
2022-12-12T05:23:17.778Z,3.63
2022-12-12T05:25:44.675Z,1.85
2022-12-12T05:28:11.606Z,1.92
2022-12-12T05:30:38.563Z,1.25
2022-12-12T05:33:05.520Z,3.63
2022-12-12T05:35:34.057Z,5.60
2022-12-12T05:38:04.057Z,1.98
2022-12-12T05:40:30.938Z,0.80
2022-12-12T05:42:57.863Z,1.63
2022-12-12T05:45:24.668Z,3.40
2022-12-12T05:47:51.617Z,3.90
2022-12-12T05:50:18.559Z,1.90
2022-12-12T05:52:45.414Z,1.60
2022-12-12T05:55:12.626Z,2.13
2022-12-12T05:57:39.656Z,16.73
2022-12-12T06:00:07.954Z,16.67
2022-12-12T06:02:34.927Z,15.05
2022-12-12T06:05:01.943Z,13.98
2022-12-12T06:07:29.115Z,15.85
2022-12-12T06:09:55.994Z,15.35
2022-12-12T06:12:23.148Z,15.52
2022-12-12T06:14:50.219Z,17.25
2022-12-12T06:17:19.985Z,15.63
2022-12-12T06:19:46.794Z,17.50
2022-12-12T06:22:13.667Z,14.38
2022-12-12T06:24:40.925Z,14.63
2022-12-12T06:27:07.814Z,18.40
2022-12-12T06:29:34.706Z,15.18
2022-12-12T06:32:02.066Z,13.35
2022-12-12T06:34:28.913Z,15.00
2022-12-12T06:36:55.857Z,13.90
2022-12-12T06:39:22.790Z,16.27
2022-12-12T06:41:49.528Z,16.52
2022-12-12T06:44:16.470Z,15.95
2022-12-12T06:46:43.349Z,14.27
2022-12-12T06:49:10.322Z,15.52
2022-12-12T06:51:43.979Z,13.75
2022-12-12T06:54:16.809Z,14.85
2022-12-12T06:56:48.286Z,15.93
2022-12-12T06:59:16.587Z,14.95
2022-12-12T07:01:43.954Z,11.80
2022-12-12T07:04:12.655Z,14.25
2022-12-12T07:06:39.733Z,15.27
2022-12-12T07:09:06.711Z,20.27
2022-12-12T07:11:33.723Z,12.50
2022-12-12T07:14:03.823Z,11.82
2022-12-12T07:16:30.684Z,11.85
2022-12-12T07:18:57.565Z,14.82
2022-12-12T07:21:24.454Z,13.13
2022-12-12T07:23:51.551Z,11.13
2022-12-12T07:26:21.243Z,9.90
2022-12-12T07:28:48.658Z,12.75
2022-12-12T07:31:18.047Z,12.43
2022-12-12T07:33:45.615Z,10.57
2022-12-12T07:36:13.783Z,13.40
2022-12-12T07:38:41.283Z,10.73
2022-12-12T07:41:12.579Z,12.23
2022-12-12T07:43:43.753Z,14.30
2022-12-12T07:46:15.423Z,10.98
2022-12-12T07:48:42.802Z,13.88
2022-12-12T07:51:09.851Z,10.98
2022-12-12T07:53:36.949Z,12.63
2022-12-12T07:56:08.483Z,12.60
2022-12-12T07:58:35.983Z,9.38
2022-12-12T08:01:19.011Z,13.70
2022-12-12T08:03:47.311Z,10.02
2022-12-12T08:06:16.923Z,8.48
2022-12-12T08:08:44.771Z,8.93
2022-12-12T08:11:13.195Z,9.38
2022-12-12T08:13:41.294Z,10.55
2022-12-12T08:16:13.892Z,7.90
2022-12-12T08:18:40.834Z,7.13
2022-12-12T08:21:11.927Z,9.55
2022-12-12T08:23:39.792Z,8.68
2022-12-12T08:26:09.689Z,10.48
2022-12-12T08:28:37.863Z,12.63
2022-12-12T08:31:05.067Z,9.93
2022-12-12T08:33:32.146Z,10.43
2022-12-12T08:35:59.243Z,11.30
2022-12-12T08:38:26.991Z,12.05
2022-12-12T08:40:53.867Z,9.60
2022-12-12T08:43:20.836Z,11.48
2022-12-12T08:45:48.053Z,9.90
2022-12-12T08:48:14.882Z,11.73
2022-12-12T08:50:41.824Z,8.02
2022-12-12T08:53:09.358Z,9.65
2022-12-12T08:55:36.146Z,13.18
2022-12-12T08:58:03.076Z,12.45
2022-12-12T09:00:29.970Z,10.82
2022-12-12T09:02:57.048Z,9.57
2022-12-12T09:05:24.047Z,14.43
2022-12-12T09:07:50.985Z,9.57
2022-12-12T09:10:18.135Z,12.05
2022-12-12T09:12:44.916Z,8.50
2022-12-12T09:15:12.152Z,12.60
2022-12-12T09:17:39.392Z,10.70
2022-12-12T09:20:06.918Z,11.73
2022-12-12T09:22:33.749Z,10.35
2022-12-12T09:25:00.658Z,11.98
2022-12-12T09:27:27.607Z,20.17
2022-12-12T09:29:54.548Z,19.02
2022-12-12T09:32:24.728Z,16.40
2022-12-12T09:34:51.941Z,17.92
2022-12-12T09:37:18.950Z,21.23
2022-12-12T09:39:45.834Z,20.95
2022-12-12T09:42:24.381Z,19.27
2022-12-12T09:44:54.473Z,20.73
2022-12-12T09:47:48.999Z,17.92
2022-12-12T09:50:27.624Z,20.05
2022-12-12T09:52:58.815Z,17.15
2022-12-12T09:55:40.370Z,18.70
2022-12-12T09:58:22.280Z,18.92
2022-12-12T10:01:31.463Z,19.98
2022-12-12T10:04:10.624Z,18.58
2022-12-12T10:07:04.514Z,20.50
2022-12-12T10:09:40.107Z,21.35
2022-12-12T10:12:12.408Z,18.13
2022-12-12T10:14:54.884Z,21.42
2022-12-12T10:17:34.001Z,18.85
2022-12-12T10:20:06.710Z,18.35
2022-12-12T10:22:47.025Z,19.48
2022-12-12T10:26:00.066Z,18.65
2022-12-12T10:28:28.908Z,21.52
2022-12-12T10:31:22.386Z,22.67
2022-12-12T10:34:05.669Z,20.65
2022-12-12T10:37:00.270Z,20.17
2022-12-12T10:39:45.934Z,25.40
2022-12-12T10:42:35.418Z,20.58
2022-12-12T10:45:17.368Z,16.13
2022-12-12T10:47:45.526Z,17.25
2022-12-12T10:50:28.618Z,14.48
2022-12-12T10:52:55.579Z,15.80
2022-12-12T10:55:47.697Z,23.95
2022-12-12T10:58:17.106Z,21.80
2022-12-12T11:00:46.193Z,22.15
2022-12-12T11:03:20.177Z,17.92
2022-12-12T11:05:47.591Z,18.33
2022-12-12T11:08:26.071Z,21.95
2022-12-12T11:11:06.929Z,19.35
2022-12-12T11:13:45.245Z,18.63
2022-12-12T11:16:23.097Z,20.05
2022-12-12T11:19:25.512Z,17.63
2022-12-12T11:21:54.703Z,18.63
2022-12-12T11:24:29.900Z,18.70
2022-12-12T11:27:02.850Z,14.93
2022-12-12T11:29:35.848Z,13.45
2022-12-12T11:32:03.875Z,11.65
2022-12-12T11:34:34.131Z,15.15
2022-12-12T11:37:01.176Z,12.57
2022-12-12T11:39:37.444Z,11.85
2022-12-12T11:42:26.214Z,11.20
2022-12-12T11:45:00.916Z,12.70
2022-12-12T11:47:30.730Z,12.73
2022-12-12T11:50:01.989Z,12.90
2022-12-12T11:52:32.717Z,11.32
2022-12-12T11:55:00.485Z,12.73
2022-12-12T11:57:27.217Z,14.43
2022-12-12T12:00:11.810Z,10.68
2022-12-12T12:05:36.367Z,12.75
2022-12-12T12:08:24.885Z,13.93
2022-12-12T12:10:57.818Z,11.40
2022-12-12T12:13:45.846Z,12.23
2022-12-12T12:16:23.488Z,12.68
2022-12-12T12:19:27.574Z,12.52
2022-12-12T12:22:35.760Z,10.77
2022-12-12T12:25:15.132Z,12.23
2022-12-12T12:28:13.728Z,12.48
2022-12-12T12:30:56.433Z,13.38
2022-12-12T12:33:41.933Z,10.55
2022-12-12T12:36:21.494Z,10.68
2022-12-12T12:39:22.395Z,14.93
2022-12-12T12:42:01.288Z,12.77
2022-12-12T12:45:07.326Z,13.98
2022-12-12T12:47:56.219Z,15.68
2022-12-12T12:50:47.229Z,12.65
2022-12-12T12:53:36.810Z,19.10
2022-12-12T12:56:26.706Z,9.20
2022-12-12T12:58:58.342Z,11.18
2022-12-12T13:01:31.288Z,13.23
2022-12-12T13:04:10.378Z,13.70
2022-12-12T13:06:51.674Z,13.70
2022-12-12T13:09:35.300Z,12.10
2022-12-12T13:12:12.180Z,12.68
2022-12-12T13:14:59.815Z,17.83
2022-12-12T13:17:43.668Z,22.75
2022-12-12T13:20:19.926Z,17.63
2022-12-12T13:22:58.692Z,19.08
2022-12-12T13:25:50.894Z,14.60
2022-12-12T13:28:46.466Z,25.35
2022-12-12T13:31:39.396Z,13.85
2022-12-12T13:34:17.293Z,15.05
2022-12-12T13:36:48.533Z,19.23
2022-12-12T13:39:41.671Z,18.50
2022-12-12T13:42:10.741Z,13.18
2022-12-12T13:44:40.743Z,18.23
2022-12-12T13:47:22.545Z,16.02
2022-12-12T13:49:59.580Z,14.65
2022-12-12T13:52:34.931Z,15.90
2022-12-12T13:55:22.651Z,16.58
2022-12-12T13:58:02.798Z,15.98
2022-12-12T14:00:34.242Z,17.02
2022-12-12T14:03:27.633Z,14.07
2022-12-12T14:05:55.463Z,18.42
2022-12-12T14:08:30.812Z,19.10
2022-12-12T14:11:03.680Z,15.82
2022-12-12T14:13:45.554Z,16.20
2022-12-12T14:16:25.156Z,16.55
2022-12-12T14:18:52.251Z,18.65
2022-12-12T14:21:21.616Z,22.35
2022-12-12T14:23:53.143Z,15.88
2022-12-12T14:26:29.048Z,16.98
2022-12-12T14:29:17.760Z,16.05
2022-12-12T14:31:56.568Z,19.10
2022-12-12T14:34:30.048Z,18.45
2022-12-12T14:37:14.978Z,20.90
2022-12-12T14:39:59.992Z,18.90
2022-12-12T14:43:20.815Z,15.75
2022-12-12T14:45:38.209Z,19.95
2022-12-12T14:48:08.835Z,18.35
2022-12-12T14:50:37.426Z,21.33
2022-12-12T14:53:12.493Z,21.80
2022-12-12T14:55:47.635Z,19.85
2022-12-12T14:58:18.793Z,20.15
2022-12-12T15:00:52.435Z,19.88
2022-12-12T15:03:25.256Z,25.45
2022-12-12T15:06:29.678Z,25.30
2022-12-12T15:09:06.825Z,23.45
2022-12-12T15:11:34.575Z,25.00
2022-12-12T15:14:04.167Z,23.75
2022-12-12T15:29:17.309Z,36.38
2022-12-12T15:31:46.287Z,34.42
2022-12-12T15:34:29.350Z,37.15
2022-12-12T15:36:56.286Z,30.50
2022-12-12T15:39:23.109Z,288.10
2022-12-12T15:41:50.508Z,46.22
2022-12-12T15:44:20.779Z,38.90
2022-12-12T15:46:50.418Z,42.17
2022-12-12T15:49:40.949Z,36.55
2022-12-12T15:52:16.779Z,40.28
2022-12-12T15:54:56.596Z,31.85
2022-12-12T15:57:34.430Z,36.28
2022-12-12T16:00:05.785Z,31.33
2022-12-12T16:02:35.564Z,36.53
2022-12-12T16:05:07.376Z,44.13
2022-12-12T16:07:37.693Z,38.88
2022-12-12T16:10:23.964Z,38.67
2022-12-12T16:13:04.269Z,54.22
2022-12-12T16:15:38.211Z,31.83
2022-12-12T16:18:18.488Z,39.58
2022-12-12T16:20:49.551Z,42.35
2022-12-12T16:23:27.160Z,42.20
2022-12-12T16:25:54.746Z,38.50
2022-12-12T16:28:26.773Z,45.20
2022-12-12T16:31:00.105Z,44.63
2022-12-12T16:33:32.183Z,43.22
2022-12-12T16:36:02.096Z,40.65
2022-12-12T16:38:30.494Z,46.85
2022-12-12T16:41:00.853Z,47.50
2022-12-12T16:43:28.086Z,55.53
2022-12-12T16:45:56.848Z,52.40
2022-12-12T16:48:27.273Z,50.60
2022-12-12T16:51:00.888Z,55.38
2022-12-12T16:53:27.759Z,55.80
2022-12-12T16:55:55.187Z,56.72
2022-12-12T16:58:22.062Z,61.80
2022-12-12T17:00:50.225Z,72.57
2022-12-12T17:03:17.486Z,62.88
2022-12-12T17:05:46.146Z,60.60
2022-12-12T17:08:15.431Z,73.53
2022-12-12T17:10:44.113Z,61.38
2022-12-12T17:13:18.903Z,63.72
2022-12-12T17:15:46.660Z,70.45
2022-12-12T17:18:13.711Z,63.70
2022-12-12T17:20:40.914Z,72.82
2022-12-12T17:23:29.550Z,63.75
2022-12-12T17:26:02.921Z,65.75
2022-12-12T17:28:32.372Z,57.90
2022-12-12T17:30:59.337Z,61.17
2022-12-12T17:33:26.771Z,55.45
2022-12-12T17:36:01.070Z,57.70
2022-12-12T17:40:56.889Z,57.58
2022-12-12T17:43:25.104Z,56.55
2022-12-12T17:46:04.022Z,60.95
2022-12-12T17:48:33.303Z,58.63
2022-12-12T17:51:02.178Z,54.53
2022-12-12T17:53:38.475Z,59.22
2022-12-12T17:56:11.841Z,61.70
2022-12-12T17:58:41.132Z,58.97
2022-12-12T18:01:12.919Z,56.00
2022-12-12T18:03:40.298Z,57.50
2022-12-12T18:06:09.184Z,65.03
2022-12-12T18:08:37.393Z,61.95
2022-12-12T18:11:09.119Z,63.47
2022-12-12T18:13:38.738Z,65.63
2022-12-12T18:16:07.419Z,77.72
2022-12-12T18:18:34.732Z,83.63
2022-12-12T18:21:29.243Z,74.30
2022-12-12T18:24:03.546Z,66.32
2022-12-12T18:26:30.472Z,66.32
2022-12-12T18:29:00.932Z,66.03
2022-12-12T18:31:29.121Z,71.38
2022-12-12T18:33:56.548Z,70.68
2022-12-12T18:36:29.158Z,67.15
2022-12-12T18:38:57.717Z,67.88
2022-12-12T18:41:24.809Z,63.55
2022-12-12T18:43:51.790Z,60.05
2022-12-12T18:46:20.936Z,49.20
2022-12-12T18:48:48.804Z,58.38
2022-12-12T18:51:18.490Z,54.03
2022-12-12T18:53:46.398Z,59.50
2022-12-12T18:56:16.901Z,66.60
2022-12-12T18:58:43.815Z,53.95
2022-12-12T19:01:14.129Z,63.35
2022-12-12T19:03:42.646Z,63.72
2022-12-12T19:06:15.212Z,60.70
2022-12-12T19:08:42.987Z,62.80
2022-12-12T19:11:11.316Z,62.58
2022-12-12T19:13:38.251Z,59.55
2022-12-12T19:16:14.492Z,50.42
2022-12-12T19:18:42.137Z,56.28
2022-12-12T19:21:11.446Z,55.50
2022-12-12T19:23:39.627Z,59.67
2022-12-12T19:26:28.195Z,55.50
2022-12-12T19:29:00.011Z,58.63
2022-12-12T19:31:27.325Z,69.32
2022-12-12T19:33:54.679Z,86.13
2022-12-12T19:36:24.769Z,91.60
2022-12-12T19:38:52.488Z,160.23
2022-12-12T19:41:21.790Z,71.63
2022-12-12T19:43:53.102Z,58.70
2022-12-12T19:46:25.974Z,47.33
2022-12-12T19:48:57.806Z,41.85
2022-12-12T19:51:26.586Z,44.75
2022-12-12T19:53:56.005Z,43.15
2022-12-12T19:56:31.039Z,37.45
2022-12-12T19:58:59.195Z,47.88
2022-12-12T20:01:29.220Z,66.75
2022-12-12T20:03:59.002Z,40.30
2022-12-12T20:06:27.699Z,30.40
2022-12-12T20:08:57.451Z,28.00
2022-12-12T20:11:24.878Z,27.38
2022-12-12T20:13:54.006Z,28.58
2022-12-12T20:16:23.892Z,31.15
2022-12-12T20:18:51.450Z,29.73
2022-12-12T20:21:51.767Z,55.13
2022-12-12T20:24:09.690Z,46.40
2022-12-12T20:26:37.393Z,29.77
2022-12-12T20:29:04.335Z,30.52
2022-12-12T20:31:34.617Z,27.65
2022-12-12T20:34:01.969Z,30.80
2022-12-12T20:36:31.535Z,29.55
2022-12-12T20:39:00.631Z,31.15
2022-12-12T20:41:38.305Z,28.58
2022-12-12T20:44:06.974Z,22.67
2022-12-12T20:46:39.406Z,29.30
2022-12-12T20:49:09.662Z,12.52
2022-12-12T20:54:24.563Z,93.53
2022-12-12T20:56:52.793Z,12.93
2022-12-12T20:59:19.739Z,12.82
2022-12-12T21:01:47.648Z,9.20
2022-12-12T21:04:15.509Z,11.65
2022-12-12T21:06:51.519Z,11.70
2022-12-12T21:09:24.298Z,13.40
2022-12-12T21:11:53.271Z,13.27
2022-12-12T21:14:20.014Z,13.50
2022-12-12T21:16:47.063Z,15.57
2022-12-12T21:19:14.592Z,17.27
2022-12-12T21:21:43.314Z,17.30
2022-12-12T21:24:15.200Z,16.52
2022-12-12T21:26:42.152Z,19.20
2022-12-12T21:29:09.102Z,5.38
2022-12-12T21:31:43.464Z,2.63
2022-12-12T21:34:13.635Z,4.35
2022-12-12T21:36:40.492Z,10.65
2022-12-12T21:39:07.641Z,2.15
2022-12-12T21:41:35.404Z,5.10
2022-12-12T21:44:02.192Z,2.80
2022-12-12T21:46:30.203Z,9.48
2022-12-12T21:49:16.637Z,0.90
2022-12-12T21:51:43.786Z,8.90
2022-12-12T21:54:13.236Z,2.53
2022-12-12T21:56:41.541Z,5.82
2022-12-12T21:59:08.846Z,2.08
2022-12-12T22:01:36.297Z,3.83
2022-12-12T22:04:03.288Z,0.57
2022-12-12T22:06:33.369Z,1.20
2022-12-12T22:09:01.845Z,3.92
2022-12-12T22:11:42.318Z,3.40
2022-12-12T22:14:17.783Z,2.17
2022-12-12T22:16:45.043Z,2.38
2022-12-12T22:19:13.787Z,1.48
2022-12-12T22:21:40.631Z,2.15
2022-12-12T22:24:07.918Z,2.45
2022-12-12T22:26:37.286Z,4.07
2022-12-12T22:29:06.932Z,6.50
2022-12-12T22:31:37.441Z,0.60
2022-12-12T22:34:10.582Z,0.20
2022-12-12T22:36:39.041Z,5.53
2022-12-12T22:39:07.804Z,0.17
2022-12-12T22:41:34.678Z,0.95
2022-12-12T22:44:04.136Z,1.10
2022-12-12T22:46:32.296Z,2.67
2022-12-12T22:49:02.318Z,2.53
2022-12-12T22:51:31.753Z,7.95
2022-12-12T22:54:00.855Z,3.80
2022-12-12T22:56:30.511Z,1.98
2022-12-12T22:58:57.651Z,0.35
2022-12-12T23:01:26.702Z,1.58
2022-12-12T23:03:54.328Z,0.43
2022-12-12T23:06:22.678Z,1.13
2022-12-12T23:08:51.997Z,0.47
2022-12-12T23:11:20.276Z,0.13
2022-12-12T23:13:47.301Z,0.38
2022-12-12T23:16:20.539Z,0.98
2022-12-12T23:18:48.565Z,0.95
2022-12-12T23:21:18.975Z,6.93
2022-12-12T23:23:46.370Z,0.10
2022-12-12T23:26:18.974Z,0.43
2022-12-12T23:28:46.556Z,1.02
2022-12-12T23:31:20.555Z,0.88
2022-12-12T23:33:48.264Z,1.05
2022-12-12T23:36:15.838Z,0.47
2022-12-12T23:38:45.180Z,0.52
2022-12-12T23:41:14.816Z,1.10
2022-12-12T23:43:42.522Z,1.05
2022-12-12T23:46:28.479Z,0.90
2022-12-12T23:48:55.708Z,1.05
2022-12-12T23:51:24.442Z,0.05
2022-12-12T23:53:51.687Z,0.30
2022-12-12T23:56:20.038Z,0.32
2022-12-12T23:58:46.816Z,0.17
